sensor_id;sensor_type;location;lat;lon;timestamp;pressure;altitude;pressure_sealevel;temperature;humidity
27040;BME280;14589;51.578;7.306;2023-06-22T00:01:10;101286.78;;;21.36;63.22
27040;BME280;14589;51.578;7.306;2023-06-22T00:03:40;101282.13;;;21.37;63.53
27040;BME280;14589;51.578;7.306;2023-06-22T00:06:11;101283.41;;;21.34;63.60
27040;BME280;14589;51.578;7.306;2023-06-22T00:08:41;101275.75;;;21.36;63.75
27040;BME280;14589;51.578;7.306;2023-06-22T00:11:12;101265.56;;;21.37;63.57
27040;BME280;14589;51.578;7.306;2023-06-22T00:13:43;101275.75;;;21.36;63.79
27040;BME280;14589;51.578;7.306;2023-06-22T00:16:13;101282.31;;;21.35;63.91
27040;BME280;14589;51.578;7.306;2023-06-22T00:18:44;101289.34;;;21.38;64.15
27040;BME280;14589;51.578;7.306;2023-06-22T00:21:19;101284.63;;;21.25;64.80
27040;BME280;14589;51.578;7.306;2023-06-22T00:23:56;101284.66;;;21.32;64.74
27040;BME280;14589;51.578;7.306;2023-06-22T00:26:30;101278.28;;;21.31;65.09
27040;BME280;14589;51.578;7.306;2023-06-22T00:29:00;101291.03;;;21.32;65.07
27040;BME280;14589;51.578;7.306;2023-06-22T00:31:31;101294.41;;;21.28;64.90
27040;BME280;14589;51.578;7.306;2023-06-22T00:34:01;101296.09;;;21.22;65.44
27040;BME280;14589;51.578;7.306;2023-06-22T00:36:35;101294.50;;;21.13;65.93
27040;BME280;14589;51.578;7.306;2023-06-22T00:39:07;101299.78;;;21.08;66.49
27040;BME280;14589;51.578;7.306;2023-06-22T00:41:38;101292.97;;;21.04;66.41
27040;BME280;14589;51.578;7.306;2023-06-22T00:44:08;101291.91;;;21.05;66.20
27040;BME280;14589;51.578;7.306;2023-06-22T00:46:39;101287.03;;;21.07;66.89
27040;BME280;14589;51.578;7.306;2023-06-22T00:49:09;101283.63;;;21.05;67.08
27040;BME280;14589;51.578;7.306;2023-06-22T00:51:40;101290.47;;;21.09;67.02
27040;BME280;14589;51.578;7.306;2023-06-22T00:54:17;101286.84;;;21.09;66.98
27040;BME280;14589;51.578;7.306;2023-06-22T00:56:54;101283.22;;;21.08;67.39
27040;BME280;14589;51.578;7.306;2023-06-22T00:59:26;101283.00;;;21.03;67.56
27040;BME280;14589;51.578;7.306;2023-06-22T01:01:57;101289.94;;;20.99;67.67
27040;BME280;14589;51.578;7.306;2023-06-22T01:04:34;101276.13;;;20.92;68.07
27040;BME280;14589;51.578;7.306;2023-06-22T01:07:22;101277.41;;;20.90;68.44
27040;BME280;14589;51.578;7.306;2023-06-22T01:13:02;101286.59;;;20.69;69.82
27040;BME280;14589;51.578;7.306;2023-06-22T01:15:44;101284.34;;;20.79;69.31
27040;BME280;14589;51.578;7.306;2023-06-22T01:18:18;101280.06;;;20.77;69.47
27040;BME280;14589;51.578;7.306;2023-06-22T01:20:50;101281.25;;;20.68;70.25
27040;BME280;14589;51.578;7.306;2023-06-22T01:23:27;101285.53;;;20.70;70.00
27040;BME280;14589;51.578;7.306;2023-06-22T01:26:17;101286.19;;;20.72;70.04
27040;BME280;14589;51.578;7.306;2023-06-22T01:28:54;101281.53;;;20.73;70.23
27040;BME280;14589;51.578;7.306;2023-06-22T01:31:27;101279.16;;;20.70;70.05
27040;BME280;14589;51.578;7.306;2023-06-22T01:34:02;101270.03;;;20.69;70.27
27040;BME280;14589;51.578;7.306;2023-06-22T01:36:33;101271.50;;;20.65;70.34
27040;BME280;14589;51.578;7.306;2023-06-22T01:39:05;101269.75;;;20.57;71.13
27040;BME280;14589;51.578;7.306;2023-06-22T01:41:37;101269.75;;;20.57;71.22
27040;BME280;14589;51.578;7.306;2023-06-22T01:44:08;101260.81;;;20.55;71.18
27040;BME280;14589;51.578;7.306;2023-06-22T01:46:40;101267.41;;;20.54;71.31
27040;BME280;14589;51.578;7.306;2023-06-22T01:49:11;101264.38;;;20.49;71.67
27040;BME280;14589;51.578;7.306;2023-06-22T01:51:42;101268.34;;;20.40;71.61
27040;BME280;14589;51.578;7.306;2023-06-22T01:54:13;101259.91;;;20.42;72.42
27040;BME280;14589;51.578;7.306;2023-06-22T01:56:43;101259.84;;;20.35;72.21
27040;BME280;14589;51.578;7.306;2023-06-22T01:59:20;101261.13;;;20.39;72.56
27040;BME280;14589;51.578;7.306;2023-06-22T02:02:00;101269.81;;;20.36;72.10
27040;BME280;14589;51.578;7.306;2023-06-22T02:05:05;101264.94;;;20.38;72.44
27040;BME280;14589;51.578;7.306;2023-06-22T02:08:02;101261.94;;;20.33;72.50
27040;BME280;14589;51.578;7.306;2023-06-22T02:10:37;101262.09;;;20.32;72.59
27040;BME280;14589;51.578;7.306;2023-06-22T02:13:09;101254.38;;;20.20;73.32
27040;BME280;14589;51.578;7.306;2023-06-22T02:15:40;101256.69;;;20.17;73.57
27040;BME280;14589;51.578;7.306;2023-06-22T02:18:12;101260.63;;;20.08;74.48
27040;BME280;14589;51.578;7.306;2023-06-22T02:20:43;101260.63;;;20.08;74.30
27040;BME280;14589;51.578;7.306;2023-06-22T02:23:13;101268.88;;;20.08;74.50
27040;BME280;14589;51.578;7.306;2023-06-22T02:25:43;101263.19;;;20.09;74.63
27040;BME280;14589;51.578;7.306;2023-06-22T02:28:14;101262.31;;;20.09;74.53
27040;BME280;14589;51.578;7.306;2023-06-22T02:30:45;101266.78;;;20.10;74.33
27040;BME280;14589;51.578;7.306;2023-06-22T02:33:15;101259.19;;;20.12;74.38
27040;BME280;14589;51.578;7.306;2023-06-22T02:35:45;101258.72;;;20.08;74.34
27040;BME280;14589;51.578;7.306;2023-06-22T02:38:19;101261.72;;;20.13;74.60
27040;BME280;14589;51.578;7.306;2023-06-22T02:40:50;101252.59;;;20.13;74.54
27040;BME280;14589;51.578;7.306;2023-06-22T02:43:21;101256.03;;;20.15;74.53
27040;BME280;14589;51.578;7.306;2023-06-22T02:45:51;101254.97;;;20.16;74.45
27040;BME280;14589;51.578;7.306;2023-06-22T02:48:22;101252.22;;;20.16;74.49
27040;BME280;14589;51.578;7.306;2023-06-22T02:50:52;101252.91;;;20.18;74.42
27040;BME280;14589;51.578;7.306;2023-06-22T02:53:23;101252.66;;;20.19;74.55
27040;BME280;14589;51.578;7.306;2023-06-22T02:55:54;101251.63;;;20.20;74.94
27040;BME280;14589;51.578;7.306;2023-06-22T02:58:24;101256.53;;;20.25;74.63
27040;BME280;14589;51.578;7.306;2023-06-22T03:00:55;101248.25;;;20.25;75.17
27040;BME280;14589;51.578;7.306;2023-06-22T03:03:26;101260.63;;;20.29;74.99
27040;BME280;14589;51.578;7.306;2023-06-22T03:05:56;101255.47;;;20.26;75.43
27040;BME280;14589;51.578;7.306;2023-06-22T03:08:28;101252.53;;;20.28;77.18
27040;BME280;14589;51.578;7.306;2023-06-22T03:11:00;101248.31;;;20.32;77.48
27040;BME280;14589;51.578;7.306;2023-06-22T03:13:30;101236.44;;;20.31;77.32
27040;BME280;14589;51.578;7.306;2023-06-22T03:16:01;101242.19;;;20.30;77.25
27040;BME280;14589;51.578;7.306;2023-06-22T03:18:34;101241.06;;;20.24;77.54
27040;BME280;14589;51.578;7.306;2023-06-22T03:21:04;101241.06;;;20.24;78.22
27040;BME280;14589;51.578;7.306;2023-06-22T03:23:35;101239.38;;;20.23;77.84
27040;BME280;14589;51.578;7.306;2023-06-22T03:26:06;101233.81;;;20.16;78.54
27040;BME280;14589;51.578;7.306;2023-06-22T03:28:37;101228.72;;;20.20;79.06
27040;BME280;14589;51.578;7.306;2023-06-22T03:31:08;101232.28;;;20.14;79.11
27040;BME280;14589;51.578;7.306;2023-06-22T03:33:40;101227.38;;;20.09;79.59
27040;BME280;14589;51.578;7.306;2023-06-22T03:36:10;101234.78;;;20.09;79.77
27040;BME280;14589;51.578;7.306;2023-06-22T03:38:41;101239.69;;;20.13;80.49
27040;BME280;14589;51.578;7.306;2023-06-22T03:41:12;101237.34;;;20.10;80.08
27040;BME280;14589;51.578;7.306;2023-06-22T03:43:43;101234.78;;;20.09;79.83
27040;BME280;14589;51.578;7.306;2023-06-22T03:46:14;101223.91;;;20.01;80.22
27040;BME280;14589;51.578;7.306;2023-06-22T03:48:44;101224.31;;;19.98;79.85
27040;BME280;14589;51.578;7.306;2023-06-22T03:51:15;101233.63;;;19.97;80.59
27040;BME280;14589;51.578;7.306;2023-06-22T03:53:45;101231.00;;;19.89;79.94
27040;BME280;14589;51.578;7.306;2023-06-22T03:56:16;101234.41;;;19.91;80.90
27040;BME280;14589;51.578;7.306;2023-06-22T03:58:50;101225.44;;;19.82;81.18
27040;BME280;14589;51.578;7.306;2023-06-22T04:01:20;101217.78;;;19.77;81.24
27040;BME280;14589;51.578;7.306;2023-06-22T04:03:51;101220.72;;;19.76;81.04
27040;BME280;14589;51.578;7.306;2023-06-22T04:06:21;101217.50;;;19.72;80.92
27040;BME280;14589;51.578;7.306;2023-06-22T04:08:52;101221.72;;;19.68;81.33
27040;BME280;14589;51.578;7.306;2023-06-22T04:11:23;101210.72;;;19.68;81.52
27040;BME280;14589;51.578;7.306;2023-06-22T04:13:53;101203.50;;;19.67;81.39
27040;BME280;14589;51.578;7.306;2023-06-22T04:16:23;101203.25;;;19.62;81.42
27040;BME280;14589;51.578;7.306;2023-06-22T04:18:54;101199.63;;;19.62;81.38
27040;BME280;14589;51.578;7.306;2023-06-22T04:21:24;101212.59;;;19.68;82.15
27040;BME280;14589;51.578;7.306;2023-06-22T04:23:55;101209.63;;;19.69;81.50
27040;BME280;14589;51.578;7.306;2023-06-22T04:26:25;101221.13;;;19.73;81.02
27040;BME280;14589;51.578;7.306;2023-06-22T04:28:55;101219.22;;;19.73;81.35
27040;BME280;14589;51.578;7.306;2023-06-22T04:31:26;101222.81;;;19.74;81.30
27040;BME280;14589;51.578;7.306;2023-06-22T04:34:03;101220.31;;;19.79;81.36
27040;BME280;14589;51.578;7.306;2023-06-22T04:36:37;101223.28;;;19.77;81.32
27040;BME280;14589;51.578;7.306;2023-06-22T04:39:10;101216.00;;;19.70;80.87
27040;BME280;14589;51.578;7.306;2023-06-22T04:41:41;101217.25;;;19.67;81.26
27040;BME280;14589;51.578;7.306;2023-06-22T04:44:16;101211.34;;;19.70;81.35
27040;BME280;14589;51.578;7.306;2023-06-22T04:46:58;101207.16;;;19.74;81.35
27040;BME280;14589;51.578;7.306;2023-06-22T04:49:34;101201.06;;;19.79;80.82
27040;BME280;14589;51.578;7.306;2023-06-22T04:52:09;101198.69;;;19.76;80.88
27040;BME280;14589;51.578;7.306;2023-06-22T04:54:40;101200.22;;;19.78;81.12
27040;BME280;14589;51.578;7.306;2023-06-22T04:57:17;101208.53;;;19.85;81.27
27040;BME280;14589;51.578;7.306;2023-06-22T04:59:47;101201.56;;;19.89;80.39
27040;BME280;14589;51.578;7.306;2023-06-22T05:02:18;101200.97;;;19.94;80.59
27040;BME280;14589;51.578;7.306;2023-06-22T05:04:48;101199.91;;;19.95;80.21
27040;BME280;14589;51.578;7.306;2023-06-22T05:07:21;101202.72;;;20.01;79.44
27040;BME280;14589;51.578;7.306;2023-06-22T05:09:55;101207.38;;;20.01;80.29
27040;BME280;14589;51.578;7.306;2023-06-22T05:12:27;101207.63;;;20.06;80.46
27040;BME280;14589;51.578;7.306;2023-06-22T05:14:58;101217.59;;;20.07;80.35
27040;BME280;14589;51.578;7.306;2023-06-22T05:17:29;101220.16;;;20.08;80.30
27040;BME280;14589;51.578;7.306;2023-06-22T05:20:00;101219.31;;;20.08;80.17
27040;BME280;14589;51.578;7.306;2023-06-22T05:22:30;101218.94;;;20.11;79.64
27040;BME280;14589;51.578;7.306;2023-06-22T05:25:01;101224.22;;;20.12;79.57
27040;BME280;14589;51.578;7.306;2023-06-22T05:27:31;101217.88;;;20.12;79.38
27040;BME280;14589;51.578;7.306;2023-06-22T05:30:02;101210.91;;;20.16;79.60
27040;BME280;14589;51.578;7.306;2023-06-22T05:32:32;101218.13;;;20.17;79.46
27040;BME280;14589;51.578;7.306;2023-06-22T05:35:04;101227.03;;;20.19;79.90
27040;BME280;14589;51.578;7.306;2023-06-22T05:37:35;101225.78;;;20.22;79.71
27040;BME280;14589;51.578;7.306;2023-06-22T05:40:05;101238.56;;;20.29;79.24
27040;BME280;14589;51.578;7.306;2023-06-22T05:42:37;101240.28;;;20.30;79.25
27040;BME280;14589;51.578;7.306;2023-06-22T05:45:08;101238.56;;;20.29;79.18
27040;BME280;14589;51.578;7.306;2023-06-22T05:47:38;101236.88;;;20.28;78.79
27040;BME280;14589;51.578;7.306;2023-06-22T05:50:09;101235.75;;;20.23;78.73
27040;BME280;14589;51.578;7.306;2023-06-22T05:52:39;101245.41;;;20.33;78.84
27040;BME280;14589;51.578;7.306;2023-06-22T05:55:09;101239.03;;;20.33;78.42
27040;BME280;14589;51.578;7.306;2023-06-22T05:57:40;101243.50;;;20.34;78.21
27040;BME280;14589;51.578;7.306;2023-06-22T06:00:11;101248.47;;;20.45;78.15
27040;BME280;14589;51.578;7.306;2023-06-22T06:02:42;101243.41;;;20.48;77.09
27040;BME280;14589;51.578;7.306;2023-06-22T06:05:13;101248.50;;;20.51;77.11
27040;BME280;14589;51.578;7.306;2023-06-22T06:07:45;101239.63;;;20.56;76.39
27040;BME280;14589;51.578;7.306;2023-06-22T06:10:16;101236.28;;;20.61;75.66
27040;BME280;14589;51.578;7.306;2023-06-22T06:12:46;101251.16;;;20.66;75.57
27040;BME280;14589;51.578;7.306;2023-06-22T06:15:17;101238.25;;;20.67;74.05
27040;BME280;14589;51.578;7.306;2023-06-22T06:17:48;101245.28;;;20.76;74.35
27040;BME280;14589;51.578;7.306;2023-06-22T06:20:22;101242.38;;;20.84;73.74
27040;BME280;14589;51.578;7.306;2023-06-22T06:22:52;101244.69;;;20.87;73.29
27040;BME280;14589;51.578;7.306;2023-06-22T06:25:23;101243.25;;;20.91;73.00
27040;BME280;14589;51.578;7.306;2023-06-22T06:27:53;101232.69;;;21.01;73.07
27040;BME280;14589;51.578;7.306;2023-06-22T06:30:24;101222.09;;;21.05;72.42
27040;BME280;14589;51.578;7.306;2023-06-22T06:32:55;101226.13;;;21.02;71.49
27040;BME280;14589;51.578;7.306;2023-06-22T06:35:25;101228.50;;;21.12;71.72
27040;BME280;14589;51.578;7.306;2023-06-22T06:37:56;101222.66;;;21.21;71.64
27040;BME280;14589;51.578;7.306;2023-06-22T06:40:26;101225.41;;;21.21;70.94
27040;BME280;14589;51.578;7.306;2023-06-22T06:42:57;101222.22;;;21.24;71.78
27040;BME280;14589;51.578;7.306;2023-06-22T06:45:27;101215.00;;;21.30;70.73
27040;BME280;14589;51.578;7.306;2023-06-22T06:47:59;101215.25;;;21.28;70.38
27040;BME280;14589;51.578;7.306;2023-06-22T06:50:29;101229.66;;;21.30;71.12
27040;BME280;14589;51.578;7.306;2023-06-22T06:53:00;101232.44;;;21.37;71.93
27040;BME280;14589;51.578;7.306;2023-06-22T06:55:30;101232.44;;;21.37;71.98
27040;BME280;14589;51.578;7.306;2023-06-22T06:58:03;101229.06;;;21.35;71.78
27040;BME280;14589;51.578;7.306;2023-06-22T07:00:37;101227.56;;;21.32;71.77
27040;BME280;14589;51.578;7.306;2023-06-22T07:03:08;101218.66;;;21.44;72.60
27040;BME280;14589;51.578;7.306;2023-06-22T07:05:38;101222.09;;;21.52;71.41
27040;BME280;14589;51.578;7.306;2023-06-22T07:08:08;101223.84;;;21.60;70.97
27040;BME280;14589;51.578;7.306;2023-06-22T07:10:39;101227.69;;;21.72;71.11
27040;BME280;14589;51.578;7.306;2023-06-22T07:13:09;101225.75;;;21.79;70.27
27040;BME280;14589;51.578;7.306;2023-06-22T07:15:40;101224.91;;;21.85;68.78
27040;BME280;14589;51.578;7.306;2023-06-22T07:18:10;101210.47;;;21.83;68.78
27040;BME280;14589;51.578;7.306;2023-06-22T07:20:41;101206.69;;;21.97;69.27
27040;BME280;14589;51.578;7.306;2023-06-22T07:23:11;101199.47;;;21.96;68.34
27040;BME280;14589;51.578;7.306;2023-06-22T07:25:42;101195.03;;;22.08;68.27
27040;BME280;14589;51.578;7.306;2023-06-22T07:28:12;101190.34;;;22.09;68.09
27040;BME280;14589;51.578;7.306;2023-06-22T07:30:42;101197.13;;;22.19;67.27
27040;BME280;14589;51.578;7.306;2023-06-22T07:33:13;101193.53;;;22.26;67.77
27040;BME280;14589;51.578;7.306;2023-06-22T07:35:43;101195.63;;;22.24;67.01
27040;BME280;14589;51.578;7.306;2023-06-22T07:38:14;101190.09;;;22.24;67.30
27040;BME280;14589;51.578;7.306;2023-06-22T07:40:45;101192.47;;;22.27;67.68
27040;BME280;14589;51.578;7.306;2023-06-22T07:43:16;101194.13;;;22.34;68.07
27040;BME280;14589;51.578;7.306;2023-06-22T07:45:49;101183.72;;;22.30;67.80
27040;BME280;14589;51.578;7.306;2023-06-22T07:48:23;101178.41;;;22.28;67.94
27040;BME280;14589;51.578;7.306;2023-06-22T07:50:53;101169.50;;;22.26;68.61
27040;BME280;14589;51.578;7.306;2023-06-22T07:53:24;101173.53;;;22.24;68.40
27040;BME280;14589;51.578;7.306;2023-06-22T07:55:54;101170.13;;;22.28;67.80
27040;BME280;14589;51.578;7.306;2023-06-22T07:58:25;101176.47;;;22.35;67.96
27040;BME280;14589;51.578;7.306;2023-06-22T08:00:55;101168.19;;;22.42;67.74
27040;BME280;14589;51.578;7.306;2023-06-22T08:03:25;101175.59;;;22.61;67.82
27040;BME280;14589;51.578;7.306;2023-06-22T08:05:56;101170.69;;;22.76;67.94
27040;BME280;14589;51.578;7.306;2023-06-22T08:08:26;101169.56;;;22.90;67.89
27040;BME280;14589;51.578;7.306;2023-06-22T08:10:56;101175.50;;;23.01;69.10
27040;BME280;14589;51.578;7.306;2023-06-22T08:13:27;101171.78;;;23.20;71.04
27040;BME280;14589;51.578;7.306;2023-06-22T08:15:57;101164.22;;;23.33;71.31
27040;BME280;14589;51.578;7.306;2023-06-22T08:18:28;101155.69;;;23.42;72.62
27040;BME280;14589;51.578;7.306;2023-06-22T08:20:58;101142.41;;;23.57;72.50
27040;BME280;14589;51.578;7.306;2023-06-22T08:23:28;101142.34;;;23.32;69.18
27040;BME280;14589;51.578;7.306;2023-06-22T08:25:59;101136.56;;;23.33;69.27
27040;BME280;14589;51.578;7.306;2023-06-22T08:28:29;101138.88;;;23.36;68.93
27040;BME280;14589;51.578;7.306;2023-06-22T08:31:00;101130.53;;;23.43;67.96
27040;BME280;14589;51.578;7.306;2023-06-22T08:33:31;101129.84;;;23.54;68.46
27040;BME280;14589;51.578;7.306;2023-06-22T08:36:02;101122.19;;;23.56;68.26
27040;BME280;14589;51.578;7.306;2023-06-22T08:38:33;101123.47;;;23.54;66.74
27040;BME280;14589;51.578;7.306;2023-06-22T08:41:03;101121.94;;;23.58;66.19
27040;BME280;14589;51.578;7.306;2023-06-22T08:43:33;101111.91;;;23.63;66.30
27040;BME280;14589;51.578;7.306;2023-06-22T08:46:04;101106.88;;;23.78;66.04
27040;BME280;14589;51.578;7.306;2023-06-22T08:48:34;101107.66;;;23.86;65.31
27040;BME280;14589;51.578;7.306;2023-06-22T08:51:04;101093.69;;;23.99;64.98
27040;BME280;14589;51.578;7.306;2023-06-22T08:53:35;101099.16;;;24.05;65.04
27040;BME280;14589;51.578;7.306;2023-06-22T08:56:06;101095.31;;;24.31;64.12
27040;BME280;14589;51.578;7.306;2023-06-22T08:58:37;101097.09;;;24.44;63.63
27040;BME280;14589;51.578;7.306;2023-06-22T09:01:07;101094.84;;;24.52;63.09
27040;BME280;14589;51.578;7.306;2023-06-22T09:03:37;101095.16;;;24.63;64.42
27040;BME280;14589;51.578;7.306;2023-06-22T09:06:08;101095.81;;;24.76;63.10
27040;BME280;14589;51.578;7.306;2023-06-22T09:08:42;101104.13;;;24.76;62.48
27040;BME280;14589;51.578;7.306;2023-06-22T09:11:16;101096.44;;;24.78;63.02
27040;BME280;14589;51.578;7.306;2023-06-22T09:13:46;101098.63;;;24.88;62.67
27040;BME280;14589;51.578;7.306;2023-06-22T09:16:17;101089.03;;;24.90;61.78
27040;BME280;14589;51.578;7.306;2023-06-22T09:18:48;101089.22;;;25.07;61.25
27040;BME280;14589;51.578;7.306;2023-06-22T09:21:19;101098.22;;;25.21;61.40
27040;BME280;14589;51.578;7.306;2023-06-22T09:23:49;101099.69;;;25.23;61.88
27040;BME280;14589;51.578;7.306;2023-06-22T09:26:21;101096.66;;;25.25;61.59
27040;BME280;14589;51.578;7.306;2023-06-22T09:28:54;101096.00;;;25.41;60.19
27040;BME280;14589;51.578;7.306;2023-06-22T09:31:24;101092.50;;;25.46;60.48
27040;BME280;14589;51.578;7.306;2023-06-22T09:33:58;101079.13;;;25.54;59.50
27040;BME280;14589;51.578;7.306;2023-06-22T09:36:28;101071.19;;;25.58;60.25
27040;BME280;14589;51.578;7.306;2023-06-22T09:38:58;101078.78;;;25.74;59.34
27040;BME280;14589;51.578;7.306;2023-06-22T09:41:32;101080.28;;;25.88;59.59
27040;BME280;14589;51.578;7.306;2023-06-22T09:44:02;101090.81;;;25.98;58.57
27040;BME280;14589;51.578;7.306;2023-06-22T09:46:36;101082.81;;;26.01;58.50
27040;BME280;14589;51.578;7.306;2023-06-22T09:49:06;101066.47;;;25.93;57.72
27040;BME280;14589;51.578;7.306;2023-06-22T09:51:36;101056.56;;;26.21;57.82
27040;BME280;14589;51.578;7.306;2023-06-22T09:54:07;101049.84;;;26.68;56.19
27040;BME280;14589;51.578;7.306;2023-06-22T09:56:38;101051.97;;;26.89;55.00
27040;BME280;14589;51.578;7.306;2023-06-22T09:59:08;101052.78;;;27.18;54.40
27040;BME280;14589;51.578;7.306;2023-06-22T10:01:38;101046.53;;;27.11;53.98
27040;BME280;14589;51.578;7.306;2023-06-22T10:04:09;101050.94;;;27.41;54.13
27040;BME280;14589;51.578;7.306;2023-06-22T10:06:39;101051.97;;;27.34;53.15
27040;BME280;14589;51.578;7.306;2023-06-22T10:09:10;101043.81;;;27.45;53.24
27040;BME280;14589;51.578;7.306;2023-06-22T10:11:41;101056.81;;;27.11;52.57
27040;BME280;14589;51.578;7.306;2023-06-22T10:14:11;101046.84;;;26.98;52.86
27040;BME280;14589;51.578;7.306;2023-06-22T10:16:42;101047.03;;;27.08;52.94
27040;BME280;14589;51.578;7.306;2023-06-22T10:19:12;101035.25;;;27.18;52.73
27040;BME280;14589;51.578;7.306;2023-06-22T10:21:42;101031.34;;;27.19;52.09
27040;BME280;14589;51.578;7.306;2023-06-22T10:24:13;101032.84;;;27.10;53.30
27040;BME280;14589;51.578;7.306;2023-06-22T10:26:43;101020.81;;;27.21;52.65
27040;BME280;14589;51.578;7.306;2023-06-22T10:29:14;101017.03;;;27.27;52.74
27040;BME280;14589;51.578;7.306;2023-06-22T10:31:44;101007.06;;;27.48;52.83
27040;BME280;14589;51.578;7.306;2023-06-22T10:34:14;100998.06;;;27.57;52.73
27040;BME280;14589;51.578;7.306;2023-06-22T10:36:45;101004.56;;;27.63;51.82
27040;BME280;14589;51.578;7.306;2023-06-22T10:39:18;101001.84;;;27.68;52.29
27040;BME280;14589;51.578;7.306;2023-06-22T10:41:49;100994.16;;;27.75;52.06
27040;BME280;14589;51.578;7.306;2023-06-22T10:44:19;101012.59;;;27.98;51.81
27040;BME280;14589;51.578;7.306;2023-06-22T10:46:50;101015.00;;;27.89;51.12
27040;BME280;14589;51.578;7.306;2023-06-22T10:49:21;101006.81;;;28.21;50.65
27040;BME280;14589;51.578;7.306;2023-06-22T10:51:51;101010.63;;;28.32;50.11
27040;BME280;14589;51.578;7.306;2023-06-22T10:54:21;101009.19;;;28.51;49.68
27040;BME280;14589;51.578;7.306;2023-06-22T10:56:52;101002.88;;;28.17;50.50
27040;BME280;14589;51.578;7.306;2023-06-22T10:59:22;101008.72;;;27.99;50.97
27040;BME280;14589;51.578;7.306;2023-06-22T11:01:55;100995.09;;;28.02;51.78
27040;BME280;14589;51.578;7.306;2023-06-22T11:04:25;100987.50;;;27.98;52.33
27040;BME280;14589;51.578;7.306;2023-06-22T11:06:55;100980.84;;;27.99;52.77
27040;BME280;14589;51.578;7.306;2023-06-22T11:09:26;100991.69;;;27.95;52.06
27040;BME280;14589;51.578;7.306;2023-06-22T11:11:57;101011.63;;;27.87;52.72
27040;BME280;14589;51.578;7.306;2023-06-22T11:14:29;101016.94;;;27.72;52.63
27040;BME280;14589;51.578;7.306;2023-06-22T11:16:59;101021.94;;;27.53;53.19
27040;BME280;14589;51.578;7.306;2023-06-22T11:19:30;101030.91;;;27.10;54.39
27040;BME280;14589;51.578;7.306;2023-06-22T11:22:00;101036.47;;;27.10;54.88
27040;BME280;14589;51.578;7.306;2023-06-22T11:24:30;101043.25;;;27.14;55.02
27040;BME280;14589;51.578;7.306;2023-06-22T11:27:01;101048.06;;;27.19;55.65
27040;BME280;14589;51.578;7.306;2023-06-22T11:29:31;101043.09;;;26.92;55.80
27040;BME280;14589;51.578;7.306;2023-06-22T11:32:02;101038.47;;;26.98;57.14
27040;BME280;14589;51.578;7.306;2023-06-22T11:34:32;101043.84;;;26.88;60.43
27040;BME280;14589;51.578;7.306;2023-06-22T11:37:02;101038.41;;;26.53;62.47
27040;BME280;14589;51.578;7.306;2023-06-22T11:39:33;101033.81;;;26.47;64.42
27040;BME280;14589;51.578;7.306;2023-06-22T11:42:03;101034.31;;;26.44;66.23
27040;BME280;14589;51.578;7.306;2023-06-22T11:44:34;101036.41;;;26.25;65.45
27040;BME280;14589;51.578;7.306;2023-06-22T11:47:05;101028.03;;;26.13;66.76
27040;BME280;14589;51.578;7.306;2023-06-22T11:49:35;101046.56;;;26.08;69.04
27040;BME280;14589;51.578;7.306;2023-06-22T11:52:06;101041.47;;;26.05;71.37
27040;BME280;14589;51.578;7.306;2023-06-22T11:54:36;101038.81;;;25.87;73.27
27040;BME280;14589;51.578;7.306;2023-06-22T11:57:07;101027.59;;;25.70;74.17
27040;BME280;14589;51.578;7.306;2023-06-22T11:59:38;101029.50;;;25.58;75.39
27040;BME280;14589;51.578;7.306;2023-06-22T12:02:08;101037.31;;;25.49;76.29
27040;BME280;14589;51.578;7.306;2023-06-22T12:04:39;101041.19;;;25.36;78.18
27040;BME280;14589;51.578;7.306;2023-06-22T12:07:10;101041.13;;;25.25;78.66
27040;BME280;14589;51.578;7.306;2023-06-22T12:09:40;101048.13;;;25.16;79.49
27040;BME280;14589;51.578;7.306;2023-06-22T12:12:11;101042.41;;;24.99;80.38
27040;BME280;14589;51.578;7.306;2023-06-22T12:14:41;101045.31;;;24.86;81.69
27040;BME280;14589;51.578;7.306;2023-06-22T12:17:11;101038.88;;;24.74;82.51
27040;BME280;14589;51.578;7.306;2023-06-22T12:19:42;101029.19;;;24.46;81.26
27040;BME280;14589;51.578;7.306;2023-06-22T12:22:12;101019.34;;;24.32;82.04
27040;BME280;14589;51.578;7.306;2023-06-22T12:24:43;101010.41;;;24.12;82.64
27040;BME280;14589;51.578;7.306;2023-06-22T12:27:13;100984.84;;;23.92;83.52
27040;BME280;14589;51.578;7.306;2023-06-22T12:29:46;100971.75;;;23.81;84.41
27040;BME280;14589;51.578;7.306;2023-06-22T12:32:17;100978.16;;;23.81;84.27
27040;BME280;14589;51.578;7.306;2023-06-22T12:34:48;100968.44;;;23.72;84.74
27040;BME280;14589;51.578;7.306;2023-06-22T12:37:18;100968.97;;;23.62;85.35
27040;BME280;14589;51.578;7.306;2023-06-22T12:39:49;100997.63;;;23.50;85.24
27040;BME280;14589;51.578;7.306;2023-06-22T12:42:19;100989.09;;;23.51;85.61
27040;BME280;14589;51.578;7.306;2023-06-22T12:44:51;100945.50;;;23.40;86.65
27040;BME280;14589;51.578;7.306;2023-06-22T12:47:21;100934.31;;;23.28;86.94
27040;BME280;14589;51.578;7.306;2023-06-22T12:49:51;100918.09;;;23.14;87.35
27040;BME280;14589;51.578;7.306;2023-06-22T12:52:23;100911.41;;;23.21;88.27
27040;BME280;14589;51.578;7.306;2023-06-22T12:54:53;100906.91;;;23.02;87.46
27040;BME280;14589;51.578;7.306;2023-06-22T12:57:24;100890.06;;;23.04;89.86
27040;BME280;14589;51.578;7.306;2023-06-22T12:59:55;100897.97;;;23.00;89.34
27040;BME280;14589;51.578;7.306;2023-06-22T13:02:26;100904.31;;;23.07;89.75
27040;BME280;14589;51.578;7.306;2023-06-22T13:04:56;100894.75;;;23.03;89.77
27040;BME280;14589;51.578;7.306;2023-06-22T13:07:27;100877.72;;;23.06;90.50
27040;BME280;14589;51.578;7.306;2023-06-22T13:09:57;100865.69;;;22.94;89.52
27040;BME280;14589;51.578;7.306;2023-06-22T13:12:28;100853.84;;;22.87;90.09
27040;BME280;14589;51.578;7.306;2023-06-22T13:14:58;100846.22;;;22.82;90.32